Time;durP1;ratioP1;P1;durP2;ratioP2;P2;SDS_P1;SDS_P2;PMS_P1;PMS_P2;Temp;Humidity;BMP_temperature;BMP_pressure;BME280_temperature;BME280_humidity;BME280_pressure;Samples;Min_cycle;Max_cycle;Signal;HPM_P1;HPM_P2
2022/05/11 00:01:26;;;;;;;3.08;1.15;;;;;;;16.57;61.92;99968.44;5161701;27;20443;-79
2022/05/11 00:03:52;;;;;;;;;;;;;;;16.63;61.97;99980.22;5162476;27;20042;-79
2022/05/11 00:06:17;;;;;;;3.75;1.08;;;;;;;16.53;61.64;99974.63;5161630;27;19911;-79
2022/05/11 00:08:43;;;;;;;2.88;1.20;;;;;;;16.42;62.10;99972.88;5161382;27;20179;-79
2022/05/11 00:11:08;;;;;;;;;;;;;;;16.53;61.42;99972.72;5161180;27;20035;-79
2022/05/11 00:13:34;;;;;;;3.67;1.40;;;;;;;16.38;61.67;99969.00;5161392;27;19918;-79
2022/05/11 00:15:59;;;;;;;;;;;;;;;16.29;62.01;99965.94;5161882;27;20114;-79
2022/05/11 00:18:25;;;;;;;11.38;1.75;;;;;;;16.45;61.40;99961.50;5160827;27;19959;-78
2022/05/11 00:20:50;;;;;;;;;;;;;;;16.41;60.80;99960.34;5161198;27;20034;-79
2022/05/11 00:23:15;;;;;;;5.33;1.20;;;;;;;16.32;62.12;99959.97;5160580;27;19951;-79
2022/05/11 00:25:41;;;;;;;;;;;;;;;16.37;61.92;99959.22;5161232;27;20362;-79
2022/05/11 00:28:06;;;;;;;3.58;1.20;;;;;;;16.27;61.70;99951.78;5161195;27;20347;-78
2022/05/11 00:30:31;;;;;;;;;;;;;;;16.22;61.84;99948.97;5141973;27;20039;-78
2022/05/11 00:32:58;;;;;;;3.03;1.13;;;;;;;16.16;62.20;99939.94;5160673;27;20010;-78
2022/05/11 00:35:29;;;;;;;3.42;1.52;;;;;;;16.18;62.08;99942.41;5161230;27;20457;-79
2022/05/11 00:37:55;;;;;;;3.28;1.25;;;;;;;16.07;61.93;99930.59;5161270;27;20070;-79
2022/05/11 00:40:23;;;;;;;2.58;1.25;;;;;;;16.14;61.72;99933.94;5162041;27;20105;-79
2022/05/11 00:42:49;;;;;;;3.30;1.33;;;;;;;16.14;61.47;99931.22;5161216;27;20031;-79
2022/05/11 00:45:14;;;;;;;2.92;1.15;;;;;;;16.15;61.76;99932.03;5164795;27;20048;-79
2022/05/11 00:47:41;;;;;;;;;;;;;;;16.19;61.71;99923.13;5165143;27;20099;-79
2022/05/11 00:50:32;;;;;;;1.70;0.80;;;;;;;16.21;61.75;99914.72;5147203;27;19939;-79
2022/05/11 00:53:11;;;;;;;3.63;1.48;;;;;;;16.12;62.13;99914.31;5168107;27;20027;-79
2022/05/11 00:55:59;;;;;;;3.00;1.20;;;;;;;16.10;62.39;99905.63;5167622;27;20023;-79
2022/05/11 00:58:42;;;;;;;4.45;1.10;;;;;;;16.08;61.43;99910.50;5162087;27;20051;-78
2022/05/11 01:01:08;;;;;;;3.17;1.40;;;;;;;16.07;61.63;99917.00;5139858;27;20037;-79
2022/05/11 01:03:43;;;;;;;2.72;0.80;;;;;;;16.16;61.14;99910.03;5159563;27;20422;-79
2022/05/11 01:06:11;;;;;;;2.35;0.93;;;;;;;16.00;61.81;99905.50;5159847;27;20031;-78
2022/05/11 01:08:36;;;;;;;2.83;0.90;;;;;;;16.09;61.90;99914.84;5159236;27;20026;-78
2022/05/11 01:11:03;;;;;;;2.90;1.00;;;;;;;16.06;61.89;99912.66;5158906;27;20038;-78
2022/05/11 01:13:31;;;;;;;3.40;1.10;;;;;;;16.09;61.57;99911.31;5158166;27;20045;-78
2022/05/11 01:15:59;;;;;;;4.82;1.08;;;;;;;16.08;61.67;99907.78;5158651;27;20046;-79
2022/05/11 01:18:25;;;;;;;3.63;1.17;;;;;;;16.03;62.27;99899.56;5159322;27;20034;-78
2022/05/11 01:20:51;;;;;;;2.90;1.33;;;;;;;16.08;61.12;99898.81;5158952;27;20030;-78
2022/05/11 01:23:35;;;;;;;2.90;1.23;;;;;;;16.04;61.34;99892.22;5158104;27;20081;-78
2022/05/11 01:26:01;;;;;;;3.88;1.15;;;;;;;16.05;61.75;99883.00;5157366;27;20112;-78
2022/05/11 01:28:27;;;;;;;3.33;1.30;;;;;;;16.04;61.37;99886.78;5139643;27;20026;-78
2022/05/11 01:31:04;;;;;;;3.30;1.17;;;;;;;16.07;61.04;99878.97;5159006;27;20027;-78
2022/05/11 01:33:31;;;;;;;3.55;1.10;;;;;;;16.14;60.07;99881.47;5158850;27;20049;-79
2022/05/11 01:36:26;;;;;;;3.88;1.30;;;;;;;16.18;59.43;99877.16;5141277;27;20477;-78
2022/05/11 01:39:07;;;;;;;4.80;1.20;;;;;;;16.22;59.08;99881.84;5159662;27;20051;-78
2022/05/11 01:41:40;;;;;;;3.80;1.50;;;;;;;16.34;57.94;99876.25;5158988;27;20106;-79
2022/05/11 01:44:11;;;;;;;4.68;1.10;;;;;;;16.43;56.93;99869.28;5158708;27;20034;-79
2022/05/11 01:46:37;;;;;;;3.42;1.08;;;;;;;16.48;56.53;99869.31;5159066;27;20106;-78
2022/05/11 01:49:03;;;;;;;2.72;1.05;;;;;;;16.42;56.83;99861.38;5158938;27;20036;-78
2022/05/11 01:51:29;;;;;;;2.70;1.00;;;;;;;16.54;56.35;99859.31;5141263;27;20027;-78
2022/05/11 01:53:54;;;;;;;3.55;1.10;;;;;;;16.57;55.83;99858.81;5159440;27;20094;-79
2022/05/11 01:56:20;;;;;;;;;;;;;;;16.60;55.75;99853.69;5159896;27;20038;-78
2022/05/11 01:58:47;;;;;;;3.58;1.52;;;;;;;16.65;55.10;99848.34;5159405;27;20005;-78
2022/05/11 02:01:19;;;;;;;3.58;1.10;;;;;;;16.63;55.26;99841.50;5160605;27;20031;-78
2022/05/11 02:03:44;;;;;;;2.78;1.10;;;;;;;16.66;54.75;99841.78;5160539;27;20038;-78
2022/05/11 02:08:53;;;;;;;3.00;1.13;;;;;;;16.71;54.28;99838.28;5160641;27;20034;-78
2022/05/11 02:11:18;;;;;;;4.67;1.00;;;;;;;16.66;54.41;99836.34;5159805;27;20031;-78
2022/05/11 02:13:45;;;;;;;2.95;1.10;;;;;;;16.79;53.89;99835.09;5160160;27;20734;-78
2022/05/11 02:16:11;;;;;;;3.30;0.90;;;;;;;16.75;54.19;99831.25;5160122;27;20023;-78
2022/05/11 02:18:37;;;;;;;3.35;1.27;;;;;;;16.82;53.91;99823.72;5141584;27;20026;-79
2022/05/11 02:21:03;;;;;;;;;;;;;;;16.67;54.22;99829.00;5161467;27;20035;-79
2022/05/11 02:23:28;;;;;;;2.22;0.90;;;;;;;16.72;53.86;99833.66;5141491;27;19907;-79
2022/05/11 02:25:53;;;;;;;;;;;;;;;16.70;54.05;99835.84;5160712;27;20030;-79
2022/05/11 02:28:21;;;;;;;3.13;1.00;;;;;;;16.61;54.28;99836.28;5159038;27;20407;-79
2022/05/11 02:30:48;;;;;;;4.03;1.05;;;;;;;16.74;54.09;99829.63;5157530;27;20015;-78
2022/05/11 02:33:14;;;;;;;2.70;1.00;;;;;;;16.76;54.04;99830.19;5157308;27;20034;-78
2022/05/11 02:35:41;;;;;;;2.92;1.20;;;;;;;16.79;53.77;99821.50;5157348;27;20052;-78
2022/05/11 02:38:16;;;;;;;2.40;1.13;;;;;;;16.85;53.66;99825.06;5157638;27;20031;-78
2022/05/11 02:40:43;;;;;;;2.38;0.95;;;;;;;16.78;54.13;99813.59;5158288;27;20058;-79
2022/05/11 02:43:10;;;;;;;3.45;1.13;;;;;;;16.75;53.81;99823.09;5157834;27;20106;-78
2022/05/11 02:45:37;;;;;;;4.07;1.30;;;;;;;16.77;53.89;99815.50;5139123;27;20031;-78
2022/05/11 02:48:03;;;;;;;3.25;1.10;;;;;;;16.73;53.86;99813.56;5157916;27;20018;-78
2022/05/11 02:50:35;;;;;;;3.53;0.90;;;;;;;16.67;54.31;99810.78;5158064;27;20083;-78
2022/05/11 02:53:07;;;;;;;2.67;1.05;;;;;;;16.76;53.99;99808.41;5157997;27;20045;-79
2022/05/11 02:55:38;;;;;;;2.60;1.00;;;;;;;16.73;54.01;99805.38;5157892;27;20027;-78
2022/05/11 02:58:04;;;;;;;2.88;0.90;;;;;;;16.76;53.63;99805.69;5139143;27;20056;-78
2022/05/11 03:00:31;;;;;;;3.10;1.10;;;;;;;16.76;53.35;99811.13;5158628;27;20026;-78
2022/05/11 03:02:57;;;;;;;4.75;1.10;;;;;;;16.74;53.83;99804.31;5157869;27;20023;-79
2022/05/11 03:05:22;;;;;;;;;;;;;;;16.84;53.48;99807.13;5157395;27;20079;-78
2022/05/11 03:07:47;;;;;;;2.50;1.10;;;;;;;16.82;53.54;99796.50;5158539;27;19917;-79
2022/05/11 03:10:13;;;;;;;;;;;;;;;16.78;53.56;99800.81;5159139;27;20027;-80
2022/05/11 03:12:38;;;;;;;2.58;1.08;;;;;;;16.77;53.54;99801.91;5159607;27;19911;-79
2022/05/11 03:15:04;;;;;;;;;;;;;;;16.75;53.54;99798.63;5140303;27;20076;-79
2022/05/11 03:17:30;;;;;;;2.50;1.08;;;;;;;16.67;54.22;99794.47;5140052;27;19922;-78
2022/05/11 03:19:55;;;;;;;3.97;1.20;;;;;;;16.71;53.75;99788.50;5156699;27;20027;-78
2022/05/11 03:22:20;;;;;;;2.40;1.00;;;;;;;16.61;53.83;99786.50;5156049;27;20252;-77
2022/05/11 03:24:45;;;;;;;;;;;;;;;16.61;53.95;99781.06;5158668;27;20034;-78
2022/05/11 03:27:11;;;;;;;2.37;0.93;;;;;;;16.69;53.96;99775.16;5160671;27;19956;-78
2022/05/11 03:29:36;;;;;;;;;;;;;;;16.72;53.82;99773.81;5159882;27;20105;-78
2022/05/11 03:34:46;;;;;;;2.83;1.10;;;;;;;16.67;53.85;99769.97;5161462;27;20050;-78
2022/05/11 03:37:19;;;;;;;2.97;1.00;;;;;;;16.67;53.33;99764.53;5161597;27;20031;-78
2022/05/11 03:39:45;;;;;;;2.67;1.00;;;;;;;16.69;53.61;99769.72;5161774;27;20031;-79
2022/05/11 03:42:18;;;;;;;2.20;1.00;;;;;;;16.72;53.58;99757.50;5161470;27;20390;-79
2022/05/11 03:44:44;;;;;;;2.70;1.00;;;;;;;16.71;53.50;99762.13;5161500;27;20045;-79
2022/05/11 03:47:09;;;;;;;2.80;1.05;;;;;;;16.83;53.16;99768.22;5160955;27;20074;-79
2022/05/11 03:49:34;;;;;;;;;;;;;;;16.80;53.32;99765.19;5163618;27;20030;-79
2022/05/11 03:52:01;;;;;;;2.55;1.08;;;;;;;16.72;53.20;99762.94;5161774;27;19962;-79
2022/05/11 03:54:26;;;;;;;4.65;1.25;;;;;;;16.74;53.63;99767.03;5161788;27;20485;-77
2022/05/11 03:56:51;;;;;;;3.30;1.13;;;;;;;16.81;53.11;99764.13;5160307;27;20043;-78
2022/05/11 03:59:17;;;;;;;3.77;1.23;;;;;;;16.71;53.51;99758.59;5161565;27;20034;-79
2022/05/11 04:01:42;;;;;;;;;;;;;;;16.72;53.33;99758.31;5142582;27;20260;-78
2022/05/11 04:04:08;;;;;;;2.72;0.93;;;;;;;16.76;53.54;99748.56;5161878;27;19922;-79
2022/05/11 04:06:33;;;;;;;;;;;;;;;16.77;53.58;99755.66;5161859;27;20057;-79
2022/05/11 04:08:58;;;;;;;2.37;0.80;;;;;;;16.69;53.71;99747.97;5163135;27;20398;-79
2022/05/11 04:11:25;;;;;;;3.03;1.65;;;;;;;16.63;53.95;99744.41;5162565;27;20315;-79
2022/05/11 04:13:50;;;;;;;;;;;;;;;16.70;53.85;99744.16;5163062;27;20034;-79
2022/05/11 04:16:16;;;;;;;2.92;1.15;;;;;;;16.73;53.95;99748.25;5162893;27;19911;-79
2022/05/11 04:18:42;;;;;;;3.22;1.20;;;;;;;16.80;53.56;99748.88;5162227;27;20388;-79
2022/05/11 04:21:08;;;;;;;3.45;1.42;;;;;;;16.76;53.72;99747.75;5163722;27;20019;-80
2022/05/11 04:23:34;;;;;;;4.10;1.20;;;;;;;16.76;53.67;99753.19;5164308;27;20037;-80
2022/05/11 04:26:00;;;;;;;2.67;1.17;;;;;;;16.79;53.47;99758.94;5163540;27;20039;-79
2022/05/11 04:28:25;;;;;;;;;;;;;;;16.88;53.68;99754.63;5163001;27;20106;-80
2022/05/11 04:30:50;;;;;;;2.63;1.30;;;;;;;16.90;53.21;99755.19;5144585;27;19907;-80
2022/05/11 04:33:15;;;;;;;;;;;;;;;16.81;53.77;99755.94;5163865;27;20054;-80
2022/05/11 04:35:41;;;;;;;2.63;1.27;;;;;;;16.86;53.49;99754.06;5162099;27;19918;-79
2022/05/11 04:38:07;;;;;;;;;;;;;;;16.89;53.51;99758.97;5163014;27;20110;-80
2022/05/11 04:40:34;;;;;;;2.65;1.10;;;;;;;16.79;53.84;99747.22;5162863;27;19907;-79
2022/05/11 04:43:06;;;;;;;4.60;1.38;;;;;;;16.96;53.20;99758.75;5142336;27;20062;-79
2022/05/11 04:45:31;;;;;;;4.35;1.10;;;;;;;16.88;53.40;99745.63;5162379;27;20038;-80
2022/05/11 04:47:56;;;;;;;3.13;1.10;;;;;;;16.84;53.87;99750.78;5162037;27;20031;-79
2022/05/11 04:50:21;;;;;;;3.00;1.03;;;;;;;16.74;54.26;99739.84;5162747;27;20333;-79
2022/05/11 04:52:47;;;;;;;;;;;;;;;16.85;53.66;99738.81;5163313;27;20651;-80
2022/05/11 04:55:12;;;;;;;3.50;1.10;;;;;;;16.73;54.35;99738.19;5161604;27;19911;-80
2022/05/11 04:57:38;;;;;;;3.20;1.13;;;;;;;16.72;54.22;99731.13;5162867;27;20450;-80
2022/05/11 05:00:04;;;;;;;;;;;;;;;16.94;53.38;99739.97;5143446;27;20039;-79
2022/05/11 05:02:30;;;;;;;4.13;1.30;;;;;;;17.05;53.16;99727.22;5163139;27;19915;-79
2022/05/11 05:05:00;;;;;;;4.10;1.35;;;;;;;17.04;53.17;99727.50;5162503;27;20113;-79
2022/05/11 05:07:26;;;;;;;2.70;0.98;;;;;;;17.10;53.05;99727.25;5163173;27;20034;-81
2022/05/11 05:09:51;;;;;;;2.90;1.15;;;;;;;17.07;53.08;99730.50;5162017;27;20114;-79
2022/05/11 05:12:16;;;;;;;;;;;;;;;17.12;53.12;99725.09;5161939;27;20042;-80
2022/05/11 05:14:42;;;;;;;4.50;1.20;;;;;;;17.17;53.05;99730.56;5141373;27;20030;-79
2022/05/11 05:17:09;;;;;;;;;;;;;;;17.15;53.10;99718.31;5162061;27;20027;-79
2022/05/11 05:19:37;;;;;;;4.70;1.45;;;;;;;17.13;53.20;99720.47;5160706;27;19911;-79
2022/05/11 05:22:03;;;;;;;3.50;1.13;;;;;;;17.15;53.26;99729.19;5141576;27;20362;-79
2022/05/11 05:24:30;;;;;;;5.00;1.40;;;;;;;17.21;52.97;99717.22;5162090;27;20034;-79
2022/05/11 05:26:55;;;;;;;4.45;1.48;;;;;;;17.27;52.92;99724.34;5161506;27;20038;-80
2022/05/11 05:32:05;;;;;;;3.38;1.50;;;;;;;17.28;53.03;99729.53;5161240;27;20037;-79
2022/05/11 05:34:30;;;;;;;;;;;;;;;17.28;52.99;99726.81;5143562;27;20030;-79
2022/05/11 05:36:56;;;;;;;3.67;1.37;;;;;;;17.33;52.73;99726.84;5162327;27;19911;-80
2022/05/11 05:39:21;;;;;;;3.40;1.30;;;;;;;17.37;52.82;99729.84;5161649;27;20331;-81
2022/05/11 05:41:46;;;;;;;;;;;;;;;17.39;52.90;99724.94;5148373;27;20038;-80
2022/05/11 05:44:12;;;;;;;2.97;1.20;;;;;;;17.44;52.95;99724.13;5163207;27;19911;-80
2022/05/11 05:46:37;;;;;;;;;;;;;;;17.38;52.98;99727.94;5162138;27;20030;-80
2022/05/11 05:49:03;;;;;;;4.68;1.50;;;;;;;17.46;52.70;99730.16;5142519;27;19907;-81
2022/05/11 05:51:28;;;;;;;;;;;;;;;17.43;52.94;99728.78;5142849;27;20026;-81
2022/05/11 05:53:55;;;;;;;2.85;1.23;;;;;;;17.52;52.70;99729.91;5161653;27;20357;-80
2022/05/11 05:56:20;;;;;;;3.15;1.20;;;;;;;17.60;52.21;99734.00;5161145;27;20083;-78
2022/05/11 05:58:46;;;;;;;;;;;;;;;17.62;52.12;99732.66;5140403;27;20067;-78
2022/05/11 06:01:12;;;;;;;4.13;1.60;;;;;;;17.67;52.13;99726.44;5158780;27;19911;-77
2022/05/11 06:03:38;;;;;;;3.85;1.35;;;;;;;17.65;52.67;99725.88;5155571;27;20760;-77
2022/05/11 06:06:04;;;;;;;;;;;;;;;17.60;53.41;99734.00;5156294;27;20061;-77
2022/05/11 06:08:29;;;;;;;4.28;1.88;;;;;;;17.65;54.64;99721.25;5137146;27;19918;-77
2022/05/11 06:10:55;;;;;;;;;;;;;;;17.75;54.92;99722.34;5139835;27;20023;-78
2022/05/11 06:13:22;;;;;;;4.60;2.10;;;;;;;17.82;55.52;99720.19;5157494;27;19958;-78
2022/05/11 06:15:52;;;;;;;4.65;1.98;;;;;;;17.84;55.44;99721.56;5156227;27;20026;-77
2022/05/11 06:18:18;;;;;;;5.32;2.10;;;;;;;17.92;55.53;99728.38;5156229;27;20330;-78
2022/05/11 06:20:44;;;;;;;5.00;2.13;;;;;;;18.09;55.54;99725.44;5157002;27;20073;-78
2022/05/11 06:23:09;;;;;;;;;;;;;;;18.36;55.25;99726.00;5158742;27;20023;-78
2022/05/11 06:25:37;;;;;;;6.80;2.53;;;;;;;19.24;52.68;99720.13;5158223;27;19907;-78
2022/05/11 06:28:03;;;;;;;5.47;2.75;;;;;;;20.10;50.65;99719.66;5157004;27;20023;-77
2022/05/11 06:30:29;;;;;;;4.45;2.15;;;;;;;20.73;49.10;99728.75;5155355;27;20030;-77
2022/05/11 06:32:54;;;;;;;4.70;2.10;;;;;;;21.14;48.00;99722.84;5158344;27;20106;-78
2022/05/11 06:35:20;;;;;;;;;;;;;;;21.49;47.18;99727.13;5159687;27;20026;-77
2022/05/11 06:37:45;;;;;;;6.10;2.45;;;;;;;21.50;47.43;99730.69;5160537;27;20408;-78
2022/05/11 06:40:13;;;;;;;4.40;2.17;;;;;;;21.95;46.53;99732.78;5159897;27;20033;-78
2022/05/11 06:42:39;;;;;;;8.65;2.72;;;;;;;22.11;45.46;99717.75;5157862;27;20469;-78
2022/05/11 06:45:05;;;;;;;9.95;2.72;;;;;;;22.09;45.49;99728.22;5157288;27;20061;-78
2022/05/11 06:47:33;;;;;;;5.45;2.45;;;;;;;22.06;45.52;99727.97;5157647;27;20082;-78
2022/05/11 06:49:58;;;;;;;4.78;2.55;;;;;;;21.64;46.53;99729.66;5158168;27;20113;-79
2022/05/11 06:52:23;;;;;;;7.53;2.70;;;;;;;22.11;46.07;99738.88;5158888;27;20372;-78
2022/05/11 07:00:17;;;;;;;7.88;3.10;;;;;;;20.88;48.61;99743.41;5164847;27;20500;-78
2022/05/11 07:02:43;;;;;;;9.43;3.20;;;;;;;21.08;48.74;99741.28;5164150;27;20030;-80
2022/05/11 07:05:09;;;;;;;6.32;3.47;;;;;;;20.65;50.00;99740.31;5164609;27;20097;-78
2022/05/11 07:07:35;;;;;;;6.50;3.50;;;;;;;20.40;51.01;99738.63;5146672;27;20030;-79
2022/05/11 07:10:02;;;;;;;6.30;2.72;;;;;;;20.19;51.51;99742.59;5165006;27;20038;-79
2022/05/11 07:12:38;;;;;;;6.22;2.58;;;;;;;20.34;51.45;99744.41;5148148;27;20026;-79
2022/05/11 07:15:08;;;;;;;7.63;2.80;;;;;;;20.56;51.37;99738.50;5164694;27;20058;-79
2022/05/11 07:17:49;;;;;;;6.78;3.05;;;;;;;20.61;51.19;99746.66;5165171;27;20033;-80
2022/05/11 07:20:26;;;;;;;7.72;3.83;;;;;;;20.26;51.46;99739.53;5146837;27;20101;-79
2022/05/11 07:22:52;;;;;;;7.35;3.30;;;;;;;20.16;51.92;99737.69;5145736;27;20096;-78
2022/05/11 07:25:24;;;;;;;7.25;3.40;;;;;;;20.13;51.80;99734.69;5163361;27;20035;-80
2022/05/11 07:27:50;;;;;;;5.03;2.63;;;;;;;20.19;51.09;99730.84;5164247;27;20054;-80
2022/05/11 07:30:18;;;;;;;7.05;2.80;;;;;;;19.86;50.89;99732.44;5162887;27;20034;-80
2022/05/11 07:32:44;;;;;;;5.63;2.70;;;;;;;19.72;51.71;99724.84;5144385;27;20099;-80
2022/05/11 07:35:09;;;;;;;6.15;3.03;;;;;;;19.82;52.01;99717.69;5144096;27;20023;-80
2022/05/11 07:37:34;;;;;;;5.82;2.90;;;;;;;20.01;51.48;99733.16;5163703;27;20023;-79
2022/05/11 07:40:00;;;;;;;5.85;2.22;;;;;;;19.98;51.10;99727.44;5164214;27;20026;-79
2022/05/11 07:42:29;;;;;;;5.00;2.53;;;;;;;20.07;51.48;99726.53;5164667;27;20452;-79
2022/05/11 07:44:55;;;;;;;5.95;2.85;;;;;;;20.03;51.35;99732.88;5145821;27;20023;-79
2022/05/11 07:47:21;;;;;;;4.90;2.17;;;;;;;20.02;51.76;99729.31;5144906;27;20026;-79
2022/05/11 07:49:56;;;;;;;5.85;2.35;;;;;;;20.12;51.22;99728.41;5163280;27;20105;-81
2022/05/11 07:52:22;;;;;;;6.27;2.80;;;;;;;20.12;51.32;99722.94;5163503;27;20022;-80
2022/05/11 07:54:47;;;;;;;4.63;2.42;;;;;;;20.27;50.17;99725.56;5164033;27;20035;-79
2022/05/11 07:59:59;;;;;;;4.88;2.10;;;;;;;20.54;50.11;99729.75;5164130;27;19918;-80
2022/05/11 08:02:30;;;;;;;3.35;1.52;;;;;;;20.67;49.07;99724.44;5144747;27;20027;-80
2022/05/11 08:05:03;;;;;;;3.58;1.63;;;;;;;20.80;48.22;99725.66;5143681;27;20027;-80
2022/05/11 08:07:42;;;;;;;3.78;1.58;;;;;;;20.84;48.51;99729.47;5164450;27;20033;-81
2022/05/11 08:10:11;;;;;;;3.63;1.52;;;;;;;20.71;48.72;99719.19;5161823;27;20515;-81
2022/05/11 08:12:37;;;;;;;8.25;2.58;;;;;;;20.64;48.43;99722.25;5161687;27;20027;-79
2022/05/11 08:15:06;;;;;;;3.40;1.23;;;;;;;20.78;48.62;99725.94;5163716;27;20038;-80
2022/05/11 08:17:34;;;;;;;5.53;1.90;;;;;;;20.73;47.87;99723.28;5144895;27;20026;-79
2022/05/11 08:20:00;;;;;;;4.20;1.42;;;;;;;20.65;48.65;99723.09;5163761;27;20102;-79
2022/05/11 08:22:29;;;;;;;2.78;1.00;;;;;;;20.76;48.49;99722.72;5164080;27;20027;-80
2022/05/11 08:24:56;;;;;;;4.10;1.20;;;;;;;21.01;47.39;99723.53;5162682;27;20022;-78
2022/05/11 08:27:25;;;;;;;2.60;1.00;;;;;;;20.96;47.64;99716.19;5162259;27;20031;-81
2022/05/11 08:35:20;;;;;;;3.83;1.20;;;;;;;20.97;48.00;99722.47;5162842;27;20057;-79
2022/05/11 08:37:45;;;;;;;3.03;1.08;;;;;;;20.76;48.90;99717.25;5163516;27;20030;-79
2022/05/11 08:40:22;;;;;;;3.75;0.95;;;;;;;20.78;48.43;99716.94;5163460;27;20038;-80
2022/05/11 08:42:47;;;;;;;2.15;1.17;;;;;;;21.00;48.80;99722.72;5162382;27;20118;-80
2022/05/11 08:45:13;;;;;;;2.72;1.08;;;;;;;21.08;48.03;99722.09;5162217;27;20030;-80
2022/05/11 08:47:45;;;;;;;3.05;1.10;;;;;;;21.12;48.15;99712.19;5143278;27;20049;-79
2022/05/11 08:50:17;;;;;;;4.20;1.25;;;;;;;21.26;47.64;99719.72;5162408;27;20038;-79
2022/05/11 08:52:57;;;;;;;2.75;1.00;;;;;;;21.02;48.58;99716.97;5162163;27;20037;-80
2022/05/11 08:55:29;;;;;;;5.40;1.30;;;;;;;;;;5161401;27;20033;-78
2022/05/11 08:57:55;;;;;;;2.92;1.20;;;;;;;21.29;47.44;99714.50;5144633;27;20137;-79
2022/05/11 09:00:21;;;;;;;2.70;1.00;;;;;;;21.37;47.71;99711.09;5163743;27;20022;-79
2022/05/11 09:02:58;;;;;;;2.67;1.20;;;;;;;21.31;47.67;99717.75;5162690;27;20026;-79
2022/05/11 09:05:27;;;;;;;2.20;0.85;;;;;;;21.43;46.44;99715.41;5162529;27;20041;-79
2022/05/11 09:07:54;;;;;;;6.70;1.27;;;;;;;21.28;46.97;99717.53;5162596;27;20094;-80
2022/05/11 09:10:28;;;;;;;2.25;1.08;;;;;;;21.29;47.17;99714.50;5163115;27;20035;-79
2022/05/11 09:13:01;;;;;;;3.22;1.20;;;;;;;21.31;46.65;99708.72;5162680;27;20058;-79
2022/05/11 09:15:45;;;;;;;3.30;1.30;;;;;;;21.35;46.99;99710.56;5143947;27;20030;-80
2022/05/11 09:18:11;;;;;;;3.70;1.50;;;;;;;21.39;47.20;99700.66;5162222;27;20027;-80
2022/05/11 09:20:37;;;;;;;2.72;1.10;;;;;;;21.39;46.98;99705.31;5160970;27;20119;-79
2022/05/11 09:23:03;;;;;;;3.42;1.15;;;;;;;21.38;47.03;99717.38;5160711;27;20027;-79
2022/05/11 09:25:33;;;;;;;3.15;1.00;;;;;;;21.34;47.21;99703.44;5140200;27;20030;-78
2022/05/11 09:28:20;;;;;;;3.70;1.23;;;;;;;21.27;47.44;99708.47;5160181;27;20136;-79
2022/05/11 09:31:00;;;;;;;4.88;1.05;;;;;;;21.30;47.72;99698.88;5162059;27;20090;-79
2022/05/11 09:33:29;;;;;;;2.92;1.17;;;;;;;21.55;47.34;99704.00;5163062;27;20220;-80
2022/05/11 09:35:55;;;;;;;6.85;1.80;;;;;;;21.72;47.11;99701.56;5159958;27;20029;-81
2022/05/11 09:38:20;;;;;;;3.20;1.30;;;;;;;21.81;46.55;99693.50;5162287;27;20031;-80
2022/05/11 09:40:59;;;;;;;4.17;1.50;;;;;;;21.86;46.82;99693.41;5144124;27;20034;-80
2022/05/11 09:43:32;;;;;;;3.33;1.25;;;;;;;21.93;46.84;99690.31;5144888;27;20022;-81
2022/05/11 09:45:58;;;;;;;2.83;1.17;;;;;;;21.81;46.64;99702.56;5162622;27;20406;-81
2022/05/11 09:48:31;;;;;;;2.80;1.30;;;;;;;22.06;46.16;99692.31;5163193;27;20038;-80
2022/05/11 09:51:23;;;;;;;3.33;1.35;;;;;;;21.92;46.35;99691.41;5163051;27;20030;-82
2022/05/11 09:53:54;;;;;;;3.70;1.50;;;;;;;21.68;46.38;99686.81;5162647;27;20034;-82
2022/05/11 09:56:32;;;;;;;5.07;1.30;;;;;;;21.82;45.82;99690.47;5162196;27;20029;-80
2022/05/11 09:59:15;;;;;;;3.28;1.48;;;;;;;22.03;45.42;99682.78;5163213;27;20023;-79
2022/05/11 10:01:41;;;;;;;3.80;1.92;;;;;;;21.96;45.15;99682.31;5162203;27;20030;-81
2022/05/11 10:04:08;;;;;;;3.92;1.77;;;;;;;21.83;45.53;99689.34;5162780;27;20108;-81
2022/05/11 10:06:41;;;;;;;4.05;1.40;;;;;;;21.87;46.24;99689.56;5161942;27;20030;-81
2022/05/11 10:09:07;;;;;;;4.50;1.30;;;;;;;22.02;46.02;99689.38;5160696;27;20593;-78
2022/05/11 10:11:44;;;;;;;3.55;1.42;;;;;;;22.21;45.41;99680.31;5160790;27;20064;-79
2022/05/11 10:22:40;;;;;;;4.28;1.45;;;;;;;22.12;45.59;99667.25;5162452;27;20101;-80
2022/05/11 10:25:42;;;;;;;3.85;1.38;;;;;;;22.23;44.88;99667.88;5162173;27;20026;-80
2022/05/11 10:28:49;;;;;;;4.68;1.40;;;;;;;22.18;44.36;99665.25;5107026;27;20038;-81
2022/05/11 10:31:37;;;;;;;3.83;1.63;;;;;;;22.23;44.50;99650.59;5162377;27;20057;-81
2022/05/11 10:34:20;;;;;;;5.40;1.55;;;;;;;22.40;44.45;99642.63;5161998;27;20087;-81
2022/05/11 10:36:58;;;;;;;5.25;2.33;;;;;;;22.50;43.96;99648.75;5162289;27;20027;-81
2022/05/11 10:39:36;;;;;;;2.88;1.30;;;;;;;22.60;44.01;99650.50;5143374;27;20038;-82
2022/05/11 10:42:29;;;;;;;3.25;1.65;;;;;;;22.73;43.55;99644.22;5142989;27;20041;-81
2022/05/11 10:45:18;;;;;;;4.03;1.88;;;;;;;22.84;43.08;99644.84;5161796;27;20512;-81
2022/05/11 10:48:00;;;;;;;3.50;1.38;;;;;;;22.44;43.25;99641.72;5161095;27;20107;-80
2022/05/11 10:50:54;;;;;;;4.13;1.65;;;;;;;22.70;42.87;99646.75;5163081;27;20421;-82
2022/05/11 10:53:41;;;;;;;3.35;1.42;;;;;;;22.75;43.24;99647.44;5162790;27;20056;-80
2022/05/11 10:56:23;;;;;;;4.15;1.80;;;;;;;22.69;43.33;99643.19;5163783;27;20034;-82
2022/05/11 10:59:06;;;;;;;5.32;1.70;;;;;;;22.62;43.55;99641.94;5164108;27;20473;-82
2022/05/11 11:01:53;;;;;;;4.43;1.58;;;;;;;22.75;43.70;99646.66;5162477;27;20023;-80
2022/05/11 11:04:36;;;;;;;3.60;1.30;;;;;;;22.82;43.33;99647.09;5162565;27;20035;-82
2022/05/11 11:07:22;;;;;;;3.15;1.40;;;;;;;22.83;42.74;99632.25;5165020;27;20045;-81
2022/05/11 11:10:03;;;;;;;3.57;1.57;;;;;;;22.87;42.84;99635.19;5164631;27;20047;-80
2022/05/11 11:12:43;;;;;;;3.60;1.70;;;;;;;23.04;42.09;99635.41;5162968;27;20046;-80
2022/05/11 11:15:15;;;;;;;4.00;1.40;;;;;;;23.22;41.81;99628.16;5161833;27;20022;-81
2022/05/11 11:17:42;;;;;;;3.05;1.23;;;;;;;23.18;41.71;99616.94;5162366;27;20137;-80
2022/05/11 11:20:10;;;;;;;4.13;1.30;;;;;;;23.11;41.92;99622.84;5161669;27;20027;-81
2022/05/11 11:23:28;;;;;;;4.30;1.35;;;;;;;23.19;41.50;99619.41;5161353;27;20033;-81
2022/05/11 11:25:58;;;;;;;;;;;;;;;23.19;41.59;99627.66;5160847;27;20030;-83
2022/05/11 11:28:26;;;;;;;3.15;1.40;;;;;;;23.38;41.76;99612.94;5161772;27;19939;-82
2022/05/11 11:31:16;;;;;;;3.97;1.52;;;;;;;22.91;41.79;99615.06;5159349;27;20039;-83
2022/05/11 11:34:03;;;;;;;3.03;1.35;;;;;;;23.30;40.80;99608.97;5149848;27;20113;-81
2022/05/11 11:36:37;;;;;;;2.97;1.30;;;;;;;23.24;40.88;99593.75;5161211;27;20041;-82
2022/05/11 11:39:08;;;;;;;3.17;1.40;;;;;;;23.42;40.63;99609.28;5161190;27;20042;-82
2022/05/11 11:42:08;;;;;;;4.18;1.75;;;;;;;23.41;40.90;99593.91;5160224;27;20023;-81
2022/05/11 11:44:43;;;;;;;3.67;1.30;;;;;;;23.70;40.39;99607.28;5161600;27;20023;-81
2022/05/11 11:47:25;;;;;;;3.60;1.13;;;;;;;23.81;40.42;99592.16;5147711;27;20038;-81
2022/05/11 11:49:52;;;;;;;6.35;1.77;;;;;;;23.97;39.90;99605.53;5166447;27;20026;-81
2022/05/11 11:52:43;;;;;;;4.10;1.77;;;;;;;23.83;39.28;99594.56;5165281;27;20034;-82
2022/05/11 11:55:21;;;;;;;3.20;1.42;;;;;;;23.95;39.31;99586.59;5146807;27;20114;-80
2022/05/11 11:57:48;;;;;;;2.85;1.17;;;;;;;24.18;39.29;99588.16;5146769;27;20365;-81
2022/05/11 12:00:46;;;;;;;2.50;1.25;;;;;;;24.08;39.29;99585.69;5167258;27;20042;-81
2022/05/11 12:03:23;;;;;;;6.13;1.30;;;;;;;23.95;38.60;99583.03;5157940;27;20046;-80
2022/05/11 12:05:52;;;;;;;3.08;1.33;;;;;;;24.18;37.96;99579.91;5149942;27;20043;-81
2022/05/11 12:16:57;;;;;;;2.53;1.10;;;;;;;24.78;38.06;99573.09;5176072;27;20041;-81
2022/05/11 12:19:26;;;;;;;3.38;1.27;;;;;;;25.10;37.43;99563.63;5175391;27;20023;-81
2022/05/11 12:22:19;;;;;;;5.25;1.40;;;;;;;25.48;36.20;99563.81;5174343;27;20027;-81
2022/05/11 12:24:56;;;;;;;4.85;1.73;;;;;;;25.69;35.66;99564.00;5174252;27;20031;-80
2022/05/11 12:27:35;;;;;;;3.72;1.40;;;;;;;26.05;34.23;99553.41;5173703;27;20052;-81
2022/05/11 12:30:44;;;;;;;4.00;1.38;;;;;;;26.07;34.02;99558.59;5154743;27;20023;-82
2022/05/11 12:33:20;;;;;;;4.03;1.58;;;;;;;26.40;32.42;99545.84;5049123;28;20060;-83
2022/05/11 12:35:49;;;;;;;2.72;1.00;;;;;;;27.19;31.65;99547.88;5065607;28;20040;-80